createdAt,value
2019-01-19T00:02:05.229Z,100664.95
2019-01-19T00:05:29.235Z,100669.46
2019-01-19T00:08:34.619Z,100666.26
2019-01-19T00:11:49.254Z,100670.95
2019-01-19T00:14:51.972Z,100670.25
2019-01-19T00:18:13.664Z,100665.53
2019-01-19T00:21:34.497Z,100672.24
2019-01-19T00:24:49.063Z,100669.87
2019-01-19T00:28:10.113Z,100668.22
2019-01-19T00:31:24.970Z,100674.27
2019-01-19T00:34:36.380Z,100670.59
2019-01-19T00:37:41.940Z,100677.95
2019-01-19T00:41:05.964Z,100679.97
2019-01-19T00:44:28.398Z,100684.98
2019-01-19T00:47:34.035Z,100687.05
2019-01-19T00:50:54.993Z,100688.09
2019-01-19T00:54:06.346Z,100692.59
2019-01-19T00:57:20.930Z,100680.74
2019-01-19T01:00:29.144Z,100682.20
2019-01-19T01:03:37.575Z,100669.56
2019-01-19T01:07:16.926Z,100677.63
2019-01-19T01:10:28.263Z,100675.56
2019-01-19T01:13:39.927Z,100679.34
2019-01-19T01:16:48.855Z,100675.98
2019-01-19T01:20:12.592Z,100674.94
2019-01-19T01:23:21.065Z,100677.89
2019-01-19T01:26:29.719Z,100685.34
2019-01-19T01:29:52.247Z,100690.01
2019-01-19T01:33:19.105Z,100682.02
2019-01-19T01:36:37.007Z,100685.16
2019-01-19T01:39:57.737Z,100677.69
2019-01-19T01:43:15.574Z,100683.00
2019-01-19T01:46:44.246Z,100674.42
2019-01-19T01:49:56.021Z,100680.45
2019-01-19T01:53:23.153Z,100675.22
2019-01-19T01:56:25.123Z,100672.79
2019-01-19T01:59:40.630Z,100674.48
2019-01-19T02:03:04.610Z,100674.11
2019-01-19T02:06:43.848Z,100667.87
2019-01-19T02:09:52.398Z,100661.22
2019-01-19T02:12:57.947Z,100662.11
2019-01-19T02:16:06.160Z,100664.31
2019-01-19T02:19:26.856Z,100663.15
2019-01-19T02:22:50.834Z,100665.64
2019-01-19T02:26:14.153Z,100664.24
2019-01-19T02:29:37.938Z,100665.45
2019-01-19T02:33:03.354Z,100661.15
2019-01-19T02:36:34.284Z,100663.15
2019-01-19T02:39:40.330Z,100672.13
2019-01-19T02:42:54.859Z,100670.33
2019-01-19T02:46:12.816Z,100669.58
2019-01-19T02:49:39.456Z,100671.20
2019-01-19T02:52:51.159Z,100676.88
2019-01-19T02:55:59.687Z,100677.70
2019-01-19T02:59:14.382Z,100671.94
2019-01-19T03:02:43.018Z,100675.33
2019-01-19T03:05:56.224Z,100667.56
2019-01-19T03:09:23.150Z,100671.04
2019-01-19T03:12:31.629Z,100662.66
2019-01-19T03:15:49.307Z,100657.04
2019-01-19T03:19:10.258Z,100666.47
2019-01-19T03:22:28.358Z,100660.27
2019-01-19T03:25:59.835Z,100667.79
2019-01-19T03:29:14.423Z,100666.40
2019-01-19T03:32:35.213Z,100664.09
2019-01-19T03:35:40.910Z,100666.58
2019-01-19T03:39:06.557Z,100660.99
2019-01-19T03:42:33.665Z,100656.03
2019-01-19T03:45:48.003Z,100663.44
2019-01-19T03:49:12.020Z,100658.57
2019-01-19T03:52:29.617Z,100658.09
2019-01-19T03:55:44.088Z,100658.83
2019-01-19T03:59:07.815Z,100650.75
2019-01-19T04:02:35.529Z,100656.47
2019-01-19T04:05:41.039Z,100656.16
2019-01-19T04:08:55.687Z,100659.06
2019-01-19T04:12:21.800Z,100664.28
2019-01-19T04:15:48.713Z,100664.59
2019-01-19T04:18:57.209Z,100664.89
2019-01-19T04:22:02.756Z,100670.09
2019-01-19T04:25:11.345Z,100672.80
2019-01-19T04:28:14.929Z,100674.53
2019-01-19T04:31:17.016Z,100670.77
2019-01-19T04:34:19.165Z,100672.84
2019-01-19T04:37:21.273Z,100672.23
2019-01-19T04:40:23.224Z,100671.89
2019-01-19T04:43:25.155Z,100670.87
2019-01-19T04:46:27.153Z,100670.00
2019-01-19T04:49:29.052Z,100671.11
2019-01-19T04:52:30.971Z,100666.52
2019-01-19T04:55:32.914Z,100666.92
2019-01-19T04:58:34.818Z,100667.73
2019-01-19T05:01:38.310Z,100667.80
2019-01-19T05:04:40.340Z,100668.20
2019-01-19T05:07:42.268Z,100671.00
2019-01-19T05:10:44.280Z,100675.70
2019-01-19T05:13:46.209Z,100664.14
2019-01-19T05:16:48.394Z,100669.80
2019-01-19T05:19:50.473Z,100672.38
2019-01-19T05:22:52.440Z,100671.43
2019-01-19T05:25:54.448Z,100677.38
2019-01-19T05:28:56.371Z,100673.92
2019-01-19T05:31:58.240Z,100672.11
2019-01-19T05:35:00.905Z,100672.13
2019-01-19T05:38:02.923Z,100678.78
2019-01-19T05:41:04.927Z,100668.52
2019-01-19T05:44:06.861Z,100668.13
2019-01-19T05:47:08.824Z,100665.01
2019-01-19T05:50:17.364Z,100667.64
2019-01-19T05:53:19.401Z,100669.63
2019-01-19T05:56:21.378Z,100674.94
2019-01-19T05:59:23.480Z,100674.11
2019-01-19T06:02:27.169Z,100670.87
2019-01-19T06:05:29.686Z,100672.12
2019-01-19T06:08:31.585Z,100674.00
2019-01-19T06:11:33.525Z,100672.34
2019-01-19T06:14:35.488Z,100675.58
2019-01-19T06:17:37.511Z,100672.95
2019-01-19T06:20:41.100Z,100676.41
2019-01-19T06:23:43.046Z,100680.80
2019-01-19T06:26:44.981Z,100681.93
2019-01-19T06:29:47.515Z,100680.66
2019-01-19T06:32:49.422Z,100682.95
2019-01-19T06:35:51.382Z,100684.30
2019-01-19T06:38:53.501Z,100691.97
2019-01-19T06:41:55.527Z,100695.48
2019-01-19T06:44:58.662Z,100689.96
2019-01-19T06:48:01.375Z,100691.02
2019-01-19T06:51:03.645Z,100696.61
2019-01-19T06:54:05.746Z,100693.27
2019-01-19T06:57:07.715Z,100701.91
2019-01-19T07:00:17.070Z,100695.67
2019-01-19T07:03:19.206Z,100703.72
2019-01-19T07:06:21.445Z,100703.72
2019-01-19T07:09:24.562Z,100712.45
2019-01-19T07:12:26.525Z,100710.80
2019-01-19T07:15:28.477Z,100718.34
2019-01-19T07:18:30.468Z,100722.74
2019-01-19T07:21:32.375Z,100721.73
2019-01-19T07:24:34.320Z,100720.46
2019-01-19T07:27:36.306Z,100727.98
2019-01-19T07:30:38.313Z,100734.64
2019-01-19T07:33:40.536Z,100731.63
2019-01-19T07:36:42.581Z,100735.87
2019-01-19T07:39:44.658Z,100742.54
2019-01-19T07:42:48.836Z,100742.00
2019-01-19T07:45:50.955Z,100744.84
2019-01-19T07:48:52.975Z,100749.89
2019-01-19T07:51:54.891Z,100747.93
2019-01-19T07:54:56.865Z,100748.67
2019-01-19T07:57:59.169Z,100752.24
2019-01-19T08:01:01.307Z,100755.89
2019-01-19T08:04:03.306Z,100759.32
2019-01-19T08:07:06.066Z,100754.95
2019-01-19T08:10:13.813Z,100755.80
2019-01-19T08:13:15.745Z,100752.77
2019-01-19T08:16:17.791Z,100760.36
2019-01-19T08:19:19.878Z,100759.58
2019-01-19T08:22:21.979Z,100762.17
2019-01-19T08:25:24.898Z,100766.98
2019-01-19T08:28:26.933Z,100764.78
2019-01-19T08:31:28.896Z,100768.66
2019-01-19T08:34:30.877Z,100773.08
2019-01-19T08:37:32.758Z,100774.64
2019-01-19T08:40:34.825Z,100776.63
2019-01-19T08:43:38.557Z,100779.66
2019-01-19T08:46:40.628Z,100771.37
2019-01-19T08:49:42.567Z,100774.84
2019-01-19T08:52:44.845Z,100779.77
2019-01-19T08:55:46.743Z,100785.27
2019-01-19T08:58:48.840Z,100782.23
2019-01-19T09:01:51.743Z,100781.05
2019-01-19T09:04:54.804Z,100782.48
2019-01-19T09:07:56.776Z,100777.52
2019-01-19T09:10:58.946Z,100779.13
2019-01-19T09:14:00.849Z,100784.27
2019-01-19T09:17:02.801Z,100782.13
2019-01-19T09:20:08.322Z,100779.13
2019-01-19T09:23:22.243Z,100780.86
2019-01-19T09:26:24.143Z,100782.25
2019-01-19T09:29:26.188Z,100786.33
2019-01-19T09:32:28.420Z,100778.47
2019-01-19T09:35:30.633Z,100777.57
2019-01-19T09:38:32.542Z,100777.52
2019-01-19T09:41:34.529Z,100775.36
2019-01-19T09:44:36.442Z,100772.02
2019-01-19T09:47:38.405Z,100771.10
2019-01-19T09:50:41.057Z,100763.95
2019-01-19T09:53:43.018Z,100768.58
2019-01-19T09:56:45.178Z,100765.48
2019-01-19T09:59:47.851Z,100759.06
2019-01-19T10:02:49.757Z,100761.40
2019-01-19T10:05:51.613Z,100756.25
2019-01-19T10:08:53.611Z,100754.34
2019-01-19T10:11:55.825Z,100758.33
2019-01-19T10:14:57.805Z,100752.99
2019-01-19T10:17:59.653Z,100747.67
2019-01-19T10:21:02.225Z,100746.13
2019-01-19T10:24:04.203Z,100739.73
2019-01-19T10:27:06.262Z,100744.44
2019-01-19T10:30:20.188Z,100737.59
2019-01-19T10:33:22.251Z,100730.70
2019-01-19T10:36:24.829Z,100729.59
2019-01-19T10:39:26.982Z,100734.11
2019-01-19T10:42:28.997Z,100727.00
2019-01-19T10:45:30.939Z,100731.73
2019-01-19T10:48:33.111Z,100734.30
2019-01-19T10:51:35.072Z,100730.50
2019-01-19T10:54:36.977Z,100723.16
2019-01-19T10:57:38.976Z,100717.47
2019-01-19T11:00:40.982Z,100719.97
2019-01-19T11:03:42.999Z,100719.73
2019-01-19T11:06:44.879Z,100716.39
2019-01-19T11:09:47.274Z,100719.41
2019-01-19T11:12:49.277Z,100713.34
2019-01-19T11:15:51.505Z,100713.27
2019-01-19T11:18:53.570Z,100709.90
2019-01-19T11:21:55.706Z,100708.45
2019-01-19T11:24:57.649Z,100701.03
2019-01-19T11:27:59.640Z,100703.40
2019-01-19T11:31:01.632Z,100693.88
2019-01-19T11:34:08.021Z,100691.91
2019-01-19T11:37:13.336Z,100685.78
2019-01-19T11:40:17.557Z,100690.84
2019-01-19T11:43:19.599Z,100688.00
2019-01-19T11:46:21.583Z,100686.56
2019-01-19T11:49:24.063Z,100678.45
2019-01-19T11:52:26.076Z,100683.46
2019-01-19T11:55:28.010Z,100678.77
2019-01-19T11:58:30.075Z,100675.29
2019-01-19T12:01:32.033Z,100675.08
2019-01-19T12:04:33.974Z,100672.79
2019-01-19T12:07:35.906Z,100672.20
2019-01-19T12:10:38.197Z,100664.80
2019-01-19T12:13:40.155Z,100669.47
2019-01-19T12:16:42.083Z,100669.48
2019-01-19T12:19:44.036Z,100667.92
2019-01-19T12:22:46.862Z,100665.12
2019-01-19T12:25:49.111Z,100663.84
2019-01-19T12:28:51.098Z,100665.19
2019-01-19T12:31:53.103Z,100657.45
2019-01-19T12:34:55.296Z,100655.80
2019-01-19T12:37:58.307Z,100654.73
2019-01-19T12:41:00.256Z,100652.68
2019-01-19T12:44:02.386Z,100649.04
2019-01-19T12:47:04.791Z,100648.03
2019-01-19T12:50:13.444Z,100641.19
2019-01-19T12:53:15.961Z,100646.17
2019-01-19T12:56:18.039Z,100640.36
2019-01-19T12:59:20.003Z,100641.80
2019-01-19T13:02:22.084Z,100641.96
2019-01-19T13:05:43.103Z,100641.17
2019-01-19T13:08:45.026Z,100639.52
2019-01-19T13:12:06.278Z,100640.44
2019-01-19T13:15:25.608Z,100630.55
2019-01-19T13:18:57.650Z,100632.34
2019-01-19T13:22:24.477Z,100634.59
2019-01-19T13:25:36.412Z,100637.13
2019-01-19T13:28:44.949Z,100636.52
2019-01-19T13:32:08.437Z,100633.94
2019-01-19T13:35:32.335Z,100635.98
2019-01-19T13:38:46.802Z,100638.81
2019-01-19T13:42:18.309Z,100629.12
2019-01-19T13:45:23.996Z,100626.20
2019-01-19T13:48:32.271Z,100624.08
2019-01-19T13:51:43.987Z,100619.55
2019-01-19T13:55:09.479Z,100621.69
2019-01-19T13:58:21.388Z,100620.97
2019-01-19T14:01:38.699Z,100613.47
2019-01-19T14:04:47.092Z,100616.55
2019-01-19T14:08:02.196Z,100617.46
2019-01-19T14:11:08.065Z,100615.48
2019-01-19T14:14:41.278Z,100611.26
2019-01-19T14:18:12.894Z,100610.25
2019-01-19T14:21:24.268Z,100610.41
2019-01-19T14:24:38.756Z,100610.58
2019-01-19T14:27:56.711Z,100606.41
2019-01-19T14:31:08.556Z,100606.11
2019-01-19T14:34:16.828Z,100606.13
2019-01-19T14:37:48.770Z,100611.41
2019-01-19T14:41:09.723Z,100609.14
2019-01-19T14:44:31.917Z,100610.00
2019-01-19T14:47:43.797Z,100606.50
2019-01-19T14:51:13.808Z,100604.76
2019-01-19T14:54:31.508Z,100600.30
2019-01-19T14:57:56.415Z,100599.27
2019-01-19T15:01:20.294Z,100599.94
2019-01-19T15:04:25.981Z,100602.58
2019-01-19T15:07:34.601Z,100598.53
2019-01-19T15:10:57.142Z,100593.63
2019-01-19T15:14:12.269Z,100601.25
2019-01-19T15:17:32.514Z,100593.56
2019-01-19T15:20:40.924Z,100592.45
2019-01-19T15:23:58.694Z,100591.08
2019-01-19T15:27:16.374Z,100592.13
2019-01-19T15:30:24.712Z,100592.14
2019-01-19T15:33:48.685Z,100591.30
2019-01-19T15:37:14.226Z,100587.84
2019-01-19T15:40:23.100Z,100590.27
2019-01-19T15:43:34.968Z,100585.46
2019-01-19T15:47:07.646Z,100588.17
2019-01-19T15:50:25.266Z,100591.59
2019-01-19T15:53:40.041Z,100590.21
2019-01-19T15:56:57.657Z,100589.69
2019-01-19T16:00:19.796Z,100584.80
2019-01-19T16:03:25.379Z,100590.81
2019-01-19T16:06:31.381Z,100584.16
2019-01-19T16:09:42.897Z,100583.41
2019-01-19T16:13:07.937Z,100575.18
2019-01-19T16:16:22.601Z,100569.98
2019-01-19T16:19:42.052Z,100574.64
2019-01-19T16:23:17.471Z,100577.52
2019-01-19T16:26:26.024Z,100575.81
2019-01-19T16:29:31.569Z,100570.45
2019-01-19T16:32:46.827Z,100573.98
2019-01-19T16:36:01.668Z,100570.33
2019-01-19T16:39:25.525Z,100567.32
2019-01-19T16:42:40.474Z,100564.50
2019-01-19T16:46:10.328Z,100565.19
2019-01-19T16:49:24.931Z,100568.17
2019-01-19T16:52:30.629Z,100564.80
2019-01-19T16:55:39.000Z,100568.22
2019-01-19T16:58:47.439Z,100565.42
2019-01-19T17:02:16.682Z,100562.65
2019-01-19T17:05:46.259Z,100568.24
2019-01-19T17:09:10.973Z,100564.88
2019-01-19T17:12:19.303Z,100564.97
2019-01-19T17:15:27.529Z,100559.59
2019-01-19T17:18:41.224Z,100558.77
2019-01-19T17:22:14.327Z,100567.39
2019-01-19T17:25:29.728Z,100563.80
2019-01-19T17:28:35.279Z,100563.22
2019-01-19T17:31:40.910Z,100559.22
2019-01-19T17:34:55.469Z,100559.22
2019-01-19T17:38:02.249Z,100560.66
2019-01-19T17:41:41.294Z,100558.23
2019-01-19T17:45:20.975Z,100547.30
2019-01-19T17:48:38.555Z,100561.21
2019-01-19T17:52:19.036Z,100551.77
2019-01-19T17:55:30.495Z,100554.99
2019-01-19T17:58:40.180Z,100558.30
2019-01-19T18:01:48.682Z,100561.61
2019-01-19T18:05:13.216Z,100559.56
2019-01-19T18:08:28.090Z,100555.82
2019-01-19T18:11:43.503Z,100562.34
2019-01-19T18:15:15.143Z,100558.30
2019-01-19T18:18:47.406Z,100559.70
2019-01-19T18:22:20.533Z,100549.29
2019-01-19T18:25:46.156Z,100553.73
2019-01-19T18:29:15.238Z,100550.46
2019-01-19T18:32:20.900Z,100547.94
2019-01-19T18:35:38.577Z,100553.94
2019-01-19T18:38:48.021Z,100539.80
2019-01-19T18:42:13.390Z,100550.20
2019-01-19T18:45:35.335Z,100545.33
2019-01-19T18:48:56.371Z,100548.59
2019-01-19T18:52:20.633Z,100550.06
2019-01-19T18:55:29.082Z,100550.66
2019-01-19T18:58:37.804Z,100550.27
2019-01-19T19:02:06.804Z,100554.19
2019-01-19T19:05:18.238Z,100551.10
2019-01-19T19:08:40.072Z,100549.80
2019-01-19T19:11:49.611Z,100550.45
2019-01-19T19:14:55.453Z,100548.27
2019-01-19T19:18:20.815Z,100551.80
2019-01-19T19:21:32.456Z,100551.75
2019-01-19T19:24:56.176Z,100550.01
2019-01-19T19:28:08.616Z,100546.87
2019-01-19T19:31:31.079Z,100549.30
2019-01-19T19:34:53.461Z,100550.33
2019-01-19T19:38:02.189Z,100549.34
2019-01-19T19:41:10.881Z,100547.75
2019-01-19T19:44:22.486Z,100546.59
2019-01-19T19:47:52.877Z,100544.41
2019-01-19T19:51:14.082Z,100538.36
2019-01-19T19:54:16.303Z,100542.86
2019-01-19T19:57:22.077Z,100538.23
2019-01-19T20:00:24.724Z,100538.81
2019-01-19T20:03:26.812Z,100539.83
2019-01-19T20:06:33.136Z,100534.39
2019-01-19T20:09:37.058Z,100536.88
2019-01-19T20:12:41.818Z,100538.16
2019-01-19T20:15:43.758Z,100538.47
2019-01-19T20:18:45.719Z,100542.73
2019-01-19T20:21:47.671Z,100536.55
2019-01-19T20:24:49.996Z,100538.93
2019-01-19T20:27:52.020Z,100535.78
2019-01-19T20:30:57.658Z,100533.95
2019-01-19T20:33:59.951Z,100531.02
2019-01-19T20:37:03.334Z,100530.67
2019-01-19T20:40:09.553Z,100529.53
2019-01-19T20:43:11.597Z,100526.70
2019-01-19T20:46:14.784Z,100530.47
2019-01-19T20:49:19.322Z,100521.08
2019-01-19T20:52:28.088Z,100527.88
2019-01-19T20:55:30.072Z,100532.30
2019-01-19T20:58:33.718Z,100532.54
2019-01-19T21:01:36.336Z,100529.91
2019-01-19T21:04:38.253Z,100528.73
2019-01-19T21:07:40.319Z,100521.48
2019-01-19T21:10:42.622Z,100525.01
2019-01-19T21:13:46.069Z,100518.99
2019-01-19T21:16:47.941Z,100522.69
2019-01-19T21:19:50.725Z,100522.44
2019-01-19T21:22:52.947Z,100516.05
2019-01-19T21:25:55.287Z,100518.44
2019-01-19T21:28:57.229Z,100516.11
2019-01-19T21:32:01.200Z,100514.11
2019-01-19T21:35:05.643Z,100516.49
2019-01-19T21:38:07.581Z,100512.59
2019-01-19T21:41:10.323Z,100513.05
2019-01-19T21:44:12.245Z,100513.42
2019-01-19T21:47:14.444Z,100514.11
2019-01-19T21:50:17.193Z,100513.83
2019-01-19T21:53:19.126Z,100513.83
2019-01-19T21:56:21.450Z,100512.86
2019-01-19T21:59:26.095Z,100507.53
2019-01-19T22:02:28.229Z,100509.56
2019-01-19T22:05:31.119Z,100505.53
2019-01-19T22:08:35.223Z,100509.25
2019-01-19T22:11:37.274Z,100505.53
2019-01-19T22:14:39.752Z,100505.16
2019-01-19T22:17:41.645Z,100500.74
2019-01-19T22:20:43.664Z,100495.42
2019-01-19T22:23:47.371Z,100494.22
2019-01-19T22:26:51.116Z,100495.73
2019-01-19T22:29:53.058Z,100499.77
2019-01-19T22:32:55.348Z,100492.73
2019-01-19T22:35:57.223Z,100497.45
2019-01-19T22:38:59.304Z,100492.44
2019-01-19T22:42:01.343Z,100489.84
2019-01-19T22:45:06.905Z,100488.09
2019-01-19T22:48:08.776Z,100487.30
2019-01-19T22:51:11.391Z,100486.33
2019-01-19T22:54:13.819Z,100488.72
2019-01-19T22:57:15.819Z,100486.86
2019-01-19T23:00:26.372Z,100486.41
2019-01-19T23:03:31.504Z,100485.42
2019-01-19T23:06:33.448Z,100481.47
2019-01-19T23:09:35.391Z,100481.02
2019-01-19T23:12:37.327Z,100480.20
2019-01-19T23:15:39.687Z,100475.17
2019-01-19T23:18:41.624Z,100478.03
2019-01-19T23:21:43.593Z,100479.23
2019-01-19T23:24:45.635Z,100478.91
2019-01-19T23:27:47.606Z,100476.24
2019-01-19T23:30:49.491Z,100480.63
2019-01-19T23:33:51.435Z,100475.24
2019-01-19T23:36:53.359Z,100475.27
2019-01-19T23:39:55.300Z,100470.11
2019-01-19T23:42:57.340Z,100460.35
2019-01-19T23:45:59.278Z,100460.35
2019-01-19T23:49:01.180Z,100454.84
2019-01-19T23:52:03.227Z,100460.72
2019-01-19T23:55:05.503Z,100456.91
2019-01-19T23:58:08.226Z,100454.75
